createdAt,value
2022-12-14T05:45:52.612Z,-7.20
2022-12-14T10:13:44.591Z,-5.20
2022-12-14T10:23:33.969Z,-5.20
2022-12-14T10:28:09.232Z,-5.20
2022-12-14T10:32:22.943Z,-5.10
2022-12-14T10:41:49.706Z,-4.80
2022-12-14T10:51:07.764Z,-4.80
2022-12-14T10:55:38.875Z,-4.80
2022-12-14T10:59:55.595Z,-4.80
2022-12-14T11:04:09.482Z,-5.00
2022-12-14T11:27:23.904Z,-4.80
2022-12-14T11:31:48.205Z,-4.90
2022-12-14T11:36:26.262Z,-4.80
2022-12-14T11:45:34.227Z,-4.80
2022-12-14T11:49:44.753Z,-4.60
2022-12-14T11:54:05.720Z,-4.70
2022-12-14T11:58:19.878Z,-4.50
2022-12-14T12:08:30.018Z,-4.50
2022-12-14T12:12:37.241Z,-4.60
2022-12-14T12:16:46.869Z,-4.50
2022-12-14T12:21:17.550Z,-4.40
2022-12-14T12:25:32.107Z,-4.30
2022-12-14T12:30:04.385Z,-4.30
2022-12-14T12:34:20.769Z,-4.40
2022-12-14T12:38:54.697Z,-4.30
2022-12-14T12:43:29.092Z,-4.30
2022-12-14T12:47:47.078Z,-4.20
2022-12-14T12:52:09.939Z,-4.40
2022-12-14T12:56:17.839Z,-4.40
2022-12-14T13:00:34.540Z,-4.40
2022-12-14T13:04:52.437Z,-4.40
2022-12-14T13:09:02.452Z,-4.50
2022-12-14T13:13:24.627Z,-4.50
2022-12-14T13:22:05.848Z,-4.40
2022-12-14T13:26:57.720Z,-4.40
2022-12-14T13:31:24.074Z,-4.40
2022-12-14T13:35:32.197Z,-4.40
2022-12-14T13:39:51.956Z,-4.40
2022-12-14T13:44:34.497Z,-4.40
2022-12-14T13:48:46.637Z,-4.50
2022-12-14T13:52:50.024Z,-4.60
2022-12-14T14:01:41.557Z,-4.50
2022-12-14T14:05:46.054Z,-4.50
2022-12-14T14:09:58.060Z,-4.60
2022-12-14T14:14:15.816Z,-4.60
2022-12-14T14:27:40.738Z,-4.50
2022-12-14T14:31:57.408Z,-4.60
2022-12-14T14:41:34.586Z,-4.60
2022-12-14T14:45:43.138Z,-4.70
2022-12-14T14:55:10.730Z,-4.50
2022-12-14T14:59:28.674Z,-4.50
2022-12-14T15:03:46.222Z,-4.50
2022-12-14T15:07:50.877Z,-4.50
2022-12-14T15:11:58.949Z,-4.60
2022-12-14T15:16:01.821Z,-4.50
2022-12-14T15:20:21.680Z,-4.50
2022-12-14T15:24:26.101Z,-4.50
2022-12-14T15:28:32.493Z,-4.50
2022-12-14T15:32:35.223Z,-4.50
2022-12-14T15:41:32.140Z,-4.60
2022-12-14T15:45:47.382Z,-4.50
2022-12-14T15:49:54.572Z,-4.50
2022-12-14T15:54:04.062Z,-4.50
2022-12-14T15:58:10.696Z,-4.40
2022-12-14T16:02:27.997Z,-4.40
2022-12-14T16:06:32.136Z,-4.40
2022-12-14T16:10:34.956Z,-4.40
2022-12-14T16:15:03.856Z,-4.40
2022-12-14T16:19:25.955Z,-4.40
2022-12-14T16:23:40.521Z,-4.40
2022-12-14T16:27:50.974Z,-4.50
2022-12-14T16:32:21.004Z,-4.50
2022-12-14T16:36:25.991Z,-4.50
2022-12-14T16:40:35.817Z,-4.50
2022-12-14T16:54:39.336Z,-4.50
2022-12-14T16:58:42.774Z,-4.50
2022-12-14T17:02:54.827Z,-4.50
2022-12-14T17:06:58.067Z,-4.50
2022-12-14T17:11:00.422Z,-4.50
2022-12-14T17:19:37.262Z,-4.50
2022-12-14T17:23:43.070Z,-4.50
2022-12-14T17:27:45.592Z,-4.50
2022-12-14T17:31:56.885Z,-4.50
2022-12-14T17:35:59.351Z,-4.50
2022-12-14T17:40:04.126Z,-4.50
2022-12-14T17:44:06.390Z,-4.50
2022-12-14T17:48:16.208Z,-4.40
2022-12-14T17:52:30.412Z,-4.40
2022-12-14T17:56:32.468Z,-4.40
2022-12-14T18:00:53.161Z,-4.40
2022-12-14T18:04:55.879Z,-4.40
2022-12-14T18:08:58.112Z,-4.40
2022-12-14T18:13:02.620Z,-4.40
2022-12-14T18:17:11.073Z,-4.40
2022-12-14T18:21:23.636Z,-4.30
2022-12-14T18:25:31.826Z,-4.30
2022-12-14T18:29:34.156Z,-4.30
2022-12-14T18:33:36.413Z,-4.20
2022-12-14T18:37:39.352Z,-4.20
2022-12-14T18:41:41.277Z,-4.20
2022-12-14T18:45:44.289Z,-4.10
2022-12-14T18:49:46.360Z,-4.10
2022-12-14T18:53:48.515Z,-4.00
2022-12-14T18:57:52.687Z,-4.00
2022-12-14T19:01:55.419Z,-4.00
2022-12-14T19:10:34.344Z,-3.90
2022-12-14T19:14:36.773Z,-3.90
2022-12-14T19:18:39.237Z,-3.90
2022-12-14T19:22:42.275Z,-3.90
2022-12-14T19:26:44.747Z,-3.80
2022-12-14T19:30:52.198Z,-3.80
2022-12-14T19:34:54.808Z,-3.80
2022-12-14T19:38:57.005Z,-3.90
2022-12-14T19:43:05.491Z,-3.70
2022-12-14T19:47:07.823Z,-3.70
2022-12-14T19:56:22.321Z,-3.30
2022-12-14T20:00:41.237Z,-2.90
2022-12-14T20:09:17.901Z,-2.50
2022-12-14T20:22:16.048Z,-2.00
2022-12-14T20:26:21.543Z,-1.80
2022-12-14T20:30:23.684Z,-1.70
2022-12-14T20:34:26.278Z,-1.60
2022-12-14T20:38:28.574Z,-1.50
2022-12-14T20:42:30.824Z,-1.50
2022-12-14T20:46:38.384Z,-1.40
2022-12-14T20:50:43.136Z,-1.40
2022-12-14T20:54:45.325Z,-1.40
2022-12-14T20:58:48.761Z,-1.30
2022-12-14T21:02:50.877Z,-1.30
2022-12-14T21:06:53.494Z,-1.30
2022-12-14T21:16:52.478Z,-1.10
2022-12-14T21:45:45.702Z,-1.10
2022-12-14T21:49:54.944Z,-1.00
2022-12-14T21:54:01.561Z,-1.00
2022-12-14T21:58:30.025Z,-1.00
2022-12-14T22:04:02.083Z,-0.90
2022-12-14T22:08:25.630Z,-0.80
2022-12-14T22:12:27.979Z,-0.70
2022-12-14T22:16:31.864Z,-0.70
2022-12-14T22:20:34.241Z,-0.70
2022-12-14T22:24:49.183Z,-0.70
2022-12-14T22:28:54.424Z,-0.70
2022-12-14T22:32:56.936Z,-0.70
2022-12-14T22:37:10.319Z,-0.70
2022-12-14T22:41:28.340Z,-0.80
2022-12-14T22:54:54.537Z,-0.80
2022-12-14T22:59:29.195Z,-0.80
2022-12-14T23:03:32.111Z,-0.70
2022-12-14T23:07:35.353Z,-0.80
2022-12-14T23:11:57.862Z,-0.80
2022-12-14T23:25:47.427Z,-1.20
2022-12-14T23:30:08.246Z,-1.50
2022-12-14T23:34:37.990Z,-1.80
2022-12-14T23:39:12.831Z,-2.00
2022-12-14T23:43:36.172Z,-2.10
2022-12-14T23:47:56.898Z,-2.20
2022-12-14T23:52:17.280Z,-2.30
2022-12-14T23:56:41.032Z,-2.40
